Latest Weather Observations for Point Stuart

IDD60801

Issued at 7:35 pm CST Friday 1 August 2014 (issued every 30 minutes, with the page automatically refreshed every 10 minutes)

About weather observations | Map of weather stations | Latest weather observations for NT | Other Formats
Station Details ID: 014254 Name: POINT STUART Lat: -12.24 Lon: 131.88 Height: 1.0 m
Data from the previous 72 hours. | See also: Recent months for locations in Northern Territory
Date/Time
CST
Temp
°C
App
Temp
°C
Dew
Point
Rel
Hum
%
Delta-T
°C
Wind Press
QNH
hPa
Press
MSL
hPa
Rain
since 9 am
mm
Dir
 
Spd
km/h
Gust
km/h
Spd
kts
Gust
kts
01/07:30pm 26.1 27.4 20.2 70 3.8 NNE 13 20 7 11 1011.9 - 0.2
01/07:00pm 26.0 28.7 20.6 72 3.5 N 7 13 4 7 1011.5 - 0.2
01/06:30pm 26.5 28.7 20.3 68 4.1 N 9 13 5 7 1011.2 - 0.2
01/06:00pm 27.4 29.5 20.2 65 4.7 N 9 15 5 8 1011.0 1011.0 0.2
01/05:30pm 28.3 30.5 20.3 62 5.3 NNW 9 17 5 9 1010.8 - 0.2
01/05:00pm 29.2 31.5 20.6 59 5.7 NNW 9 17 5 9 1010.6 - 0.2
01/04:30pm 30.3 32.4 20.2 54 6.7 NNW 9 15 5 8 1010.4 - 0.2
01/04:00pm 29.7 30.9 19.1 53 6.9 N 11 17 6 9 1010.3 - 0.2
01/03:30pm 30.5 31.8 19.2 51 7.4 N 11 20 6 11 1010.6 - 0.2
01/03:00pm 30.6 32.0 19.6 51 7.2 NNE 11 19 6 10 1011.0 1011.0 0.2
01/02:30pm 30.6 31.4 19.9 52 7.0 NE 15 24 8 13 1011.6 - 0.2
01/02:00pm 30.0 30.2 19.4 53 6.9 NNE 17 26 9 14 1012.3 - 0.2
01/01:30pm 29.9 31.0 20.5 57 6.2 NNE 15 22 8 12 1013.2 - 0.2
01/01:00pm 29.1 29.6 20.0 58 6.0 NNE 17 28 9 15 1013.6 - 0.2
01/12:30pm 29.9 31.4 21.3 60 5.8 NNE 15 26 8 14 1014.0 - 0.2
01/12:00pm 29.2 30.1 20.9 61 5.5 NE 17 26 9 14 1014.4 1014.4 0.2
01/11:30am 29.0 29.2 20.2 59 5.8 NE 19 30 10 16 1014.9 - 0.2
01/11:00am 28.2 28.4 20.5 63 5.1 E 20 26 11 14 1015.3 - 0.2
01/10:30am 27.3 28.1 21.3 69 4.0 ENE 19 26 10 14 1015.6 - 0.2
01/10:00am 27.2 28.0 21.7 72 3.7 E 20 26 11 14 1015.5 - 0.0
01/09:30am 26.8 27.7 22.0 75 3.2 E 20 26 11 14 1015.3 - 0.0
01/09:00am 26.3 27.6 22.4 79 2.6 E 19 24 10 13 1015.1 1015.1 0.0
01/08:30am 24.9 27.2 22.0 84 1.9 SE 13 19 7 10 1015.0 - 0.0
01/08:00am 25.0 28.8 23.4 91 1.1 ESE 9 15 5 8 1014.7 - 0.0
01/07:30am 22.8 26.3 22.1 96 0.5 ESE 7 9 4 5 1014.3 - 0.0
01/07:00am 24.1 27.0 22.5 91 1.1 ENE 11 15 6 8 1014.3 - 0.0
01/06:30am 23.8 26.7 22.4 92 0.9 ENE 11 13 6 7 1014.1 - 0.0
01/06:00am 24.0 27.0 22.6 92 0.9 ENE 11 17 6 9 1014.0 1014.0 0.0
01/05:30am 22.8 25.8 20.9 89 1.2 SE 6 9 3 5 1014.0 - 0.0
01/05:00am 24.5 26.5 22.2 87 1.5 ENE 15 20 8 11 1013.9 - 0.0
01/04:30am 24.3 26.7 22.2 88 1.4 E 13 20 7 11 1013.6 - 0.0
01/04:00am 24.5 25.6 22.0 86 1.7 ENE 19 26 10 14 1013.5 - 0.0
01/03:30am 24.2 25.9 21.7 86 1.7 ENE 15 22 8 12 1013.5 - 0.0
01/03:00am 24.1 26.6 21.8 87 1.5 ENE 11 15 6 8 1013.5 1013.5 0.0
01/02:30am 24.1 26.0 21.4 85 1.8 NE 13 22 7 12 1013.5 - 0.0
01/02:00am 24.1 25.7 20.8 82 2.2 NE 13 19 7 10 1013.5 - 0.0
01/01:30am 24.4 25.8 21.1 82 2.2 NE 15 20 8 11 1013.6 - 0.0
01/01:00am 24.5 26.5 21.6 84 1.9 NE 13 17 7 9 1013.6 - 0.0
01/12:30am 24.9 26.9 22.2 85 1.8 NE 15 22 8 12 1013.5 - 0.0
01/12:00am 24.8 27.4 21.9 84 1.9 NE 11 15 6 8 1013.4 1013.4 0.0
 
Date/Time
CST
Temp
°C
App
Temp
°C
Dew
Point
Rel
Hum
%
Delta-T
°C
Wind Press
QNH
hPa
Press
MSL
hPa
Rain
since 9 am
mm
Dir
 
Spd
km/h
Gust
km/h
Spd
kts
Gust
kts
31/11:30pm 25.2 27.9 22.1 83 2.1 NNE 11 20 6 11 1013.3 - 0.0
31/11:00pm 25.1 26.9 21.2 79 2.6 NE 13 17 7 9 1013.2 - 0.0
31/10:30pm 25.4 27.4 21.5 79 2.6 NNE 13 20 7 11 1013.1 - 0.0
31/10:00pm 25.7 27.6 21.4 77 2.8 NNE 13 20 7 11 1012.9 - 0.0
31/09:30pm 25.3 27.9 21.2 78 2.7 NNE 9 13 5 7 1012.7 - 0.0
31/09:00pm 25.2 27.7 21.1 78 2.7 NNE 9 13 5 7 1012.6 1012.6 0.0
31/08:30pm 25.1 27.3 20.4 75 3.1 NNE 9 11 5 6 1012.6 - 0.0
31/08:00pm 25.6 27.7 20.2 72 3.5 NNE 9 13 5 7 1012.2 - 0.0
31/07:30pm 25.4 27.8 20.0 72 3.5 N 7 13 4 7 1011.8 - 0.0
31/07:00pm 25.8 27.5 19.4 67 4.1 N 9 15 5 8 1011.6 - 0.0
31/06:30pm 26.6 28.1 19.7 66 4.5 N 11 19 6 10 1011.6 - 0.0
31/06:00pm 27.8 28.9 18.8 58 5.8 N 11 17 6 9 1011.5 1011.5 0.0
31/05:30pm 29.4 30.3 17.6 49 7.5 N 9 15 5 8 1011.2 - 0.0
31/05:00pm 30.2 30.1 15.9 42 8.9 N 11 17 6 9 1011.0 - 0.0
31/04:30pm 30.5 31.1 17.6 46 8.2 N 11 20 6 11 1011.0 - 0.0
31/04:00pm 30.5 30.5 17.2 44 8.4 NNE 13 19 7 10 1011.0 - 0.0
31/03:30pm 30.8 30.3 16.0 40 9.2 NNE 13 20 7 11 1011.1 - 0.0
31/03:00pm 31.3 31.4 18.3 46 8.4 NE 15 22 8 12 1011.4 1011.4 0.0
31/02:30pm 30.8 30.4 17.1 43 8.7 NE 15 20 8 11 1012.2 - 0.0
31/02:00pm 30.8 31.1 17.8 45 8.3 NNE 13 20 7 11 1012.7 - 0.0
31/01:30pm 30.4 31.1 18.8 50 7.5 NNE 13 22 7 12 1013.1 - 0.0
31/01:00pm 30.3 30.6 18.7 50 7.5 NE 15 20 8 11 1013.5 - 0.0
31/12:30pm 30.7 31.0 18.8 49 7.7 ENE 15 22 8 12 1014.0 - 0.0
31/12:00pm 30.3 29.9 18.1 48 7.8 ENE 17 24 9 13 1014.6 1014.6 0.0
31/11:30am 29.0 28.9 18.7 53 6.6 E 17 24 9 13 1015.1 - 0.0
31/11:00am 28.7 29.8 20.4 60 5.5 E 15 20 8 11 1015.4 - 0.0
31/10:30am 27.3 26.9 18.9 60 5.4 E 19 26 10 14 1015.7 - 0.0
31/10:00am 26.8 27.2 20.6 69 4.1 E 19 26 10 14 1015.9 - 0.0
31/09:30am 26.3 26.6 20.8 71 3.6 E 20 30 11 16 1015.7 - 0.0
31/09:00am 25.7 27.0 21.6 78 2.7 E 17 20 9 11 1015.6 1015.6 0.0
31/08:30am 24.3 27.3 22.6 90 1.1 ESE 11 15 6 8 1015.5 - 0.0
31/08:00am 22.6 25.8 22.3 98 0.2 SSE 9 13 5 7 1015.3 - 0.0
31/07:30am 21.4 24.5 21.4 100 0.0 SSE 7 9 4 5 1015.2 - 0.0
31/07:00am 21.0 24.0 20.8 99 0.1 SSE 6 6 3 3 1014.9 - 0.0
31/06:30am 21.1 23.9 20.9 99 0.1 S 7 9 4 5 1014.7 - 0.0
31/06:00am 21.7 24.4 20.2 91 1.0 S 6 7 3 4 1014.6 1014.6 0.0
31/05:30am 23.7 26.7 22.0 90 1.1 ENE 9 13 5 7 1014.5 - 0.0
31/05:00am 24.0 26.2 21.9 88 1.4 ENE 13 19 7 10 1014.3 - 0.0
31/04:30am 24.1 26.4 22.0 88 1.4 ENE 13 15 7 8 1014.2 - 0.0
31/04:00am 24.3 26.2 22.0 87 1.5 ENE 15 22 8 12 1014.1 - 0.0
31/03:30am 24.5 26.1 22.2 87 1.5 ENE 17 24 9 13 1014.2 - 0.0
31/03:00am 24.5 25.7 22.2 87 1.5 ENE 19 28 10 15 1014.1 1014.1 0.0
31/02:30am 24.5 25.9 22.6 89 1.3 ENE 19 24 10 13 1014.3 - 0.0
31/02:00am 24.5 25.9 22.6 89 1.3 ENE 19 28 10 15 1014.3 - 0.0
31/01:30am 24.6 25.9 22.3 87 1.5 ENE 19 28 10 15 1014.3 - 0.0
31/01:00am 24.7 25.7 22.2 86 1.7 ENE 20 28 11 15 1014.3 - 0.0
31/12:30am 24.7 26.1 21.8 84 1.9 NE 17 24 9 13 1014.4 - 0.0
31/12:00am 24.9 25.6 21.2 80 2.4 NE 19 28 10 15 1014.4 1014.4 0.0
 
Date/Time
CST
Temp
°C
App
Temp
°C
Dew
Point
Rel
Hum
%
Delta-T
°C
Wind Press
QNH
hPa
Press
MSL
hPa
Rain
since 9 am
mm
Dir
 
Spd
km/h
Gust
km/h
Spd
kts
Gust
kts
30/11:30pm 25.2 26.5 20.9 77 2.8 NE 15 22 8 12 1014.3 - 0.0
30/11:00pm 25.2 26.4 20.7 76 2.9 NE 15 24 8 13 1014.5 - 0.0
30/10:30pm 25.4 27.2 21.1 77 2.8 NNE 13 20 7 11 1014.5 - 0.0
30/10:00pm 25.7 28.1 21.6 78 2.7 NNE 11 17 6 9 1014.5 - 0.0
30/09:30pm 25.7 28.1 21.6 78 2.7 NNE 11 19 6 10 1014.4 - 0.0
30/09:00pm 25.5 28.5 22.0 81 2.3 NNE 9 15 5 8 1014.1 1014.1 0.0
30/08:30pm 25.3 28.4 21.4 79 2.6 N 7 11 4 6 1014.0 - 0.0
30/08:00pm 24.9 27.4 20.2 75 3.1 N 7 9 4 5 1013.5 - 0.0
30/07:30pm 25.1 27.3 19.7 72 3.5 N 7 9 4 5 1013.2 - 0.0
30/07:00pm 25.5 27.2 18.4 65 4.5 NNW 7 9 4 5 1012.8 - 0.0
30/06:30pm 26.7 28.3 18.3 60 5.3 N 7 11 4 6 1012.6 - 0.0
30/06:00pm 27.9 28.5 17.7 53 6.4 N 11 17 6 9 1012.4 1012.4 0.0
30/05:30pm 29.3 29.9 17.8 50 7.3 NW 11 17 6 9 1012.1 - 0.0
30/05:00pm 30.5 31.2 17.9 47 8.1 NW 11 17 6 9 1011.9 - 0.0
30/04:30pm 30.1 30.4 16.1 42 8.7 N 9 19 5 10 1011.8 - 0.0
30/04:00pm 31.1 31.4 17.8 45 8.5 NNW 13 19 7 10 1011.7 - 0.0
30/03:30pm 30.8 30.9 16.4 42 9.0 NNE 11 20 6 11 1012.0 - 0.0
30/03:00pm 31.6 30.9 16.3 39 9.6 NE 15 22 8 12 1012.1 1012.1 0.0
30/02:30pm 30.8 30.6 16.8 43 8.8 NNE 13 20 7 11 1012.6 - 0.0
30/02:00pm 30.7 29.9 17.0 43 8.7 NNE 17 28 9 15 1013.0 - 0.0
30/01:30pm 30.2 28.9 16.9 44 8.4 NNE 19 26 10 14 1013.5 - 0.0
30/01:00pm 30.6 29.6 16.6 43 8.8 NNE 17 24 9 13 1013.8 - 0.0
30/12:30pm 31.1 30.0 16.3 41 9.3 NE 17 24 9 13 1014.3 - 0.0
30/12:00pm 29.8 28.2 15.9 43 8.6 NE 19 24 10 13 1014.8 1014.8 0.0
30/11:30am 29.0 27.7 15.9 45 8.1 E 17 24 9 13 1015.2 - 0.0
30/11:00am 28.4 27.9 17.9 53 6.7 E 17 24 9 13 1015.6 - 0.0
30/10:30am 27.6 26.8 18.0 55 6.1 E 19 26 10 14 1015.9 - 0.0
30/10:00am 27.4 27.2 17.6 55 6.2 E 15 22 8 12 1016.1 - 0.0
30/09:30am 26.0 25.7 18.2 62 4.9 E 17 22 9 12 1016.2 - 0.0
30/09:00am 24.6 25.0 19.0 71 3.6 ESE 15 19 8 10 1016.3 1016.3 0.0
30/08:30am 22.9 24.8 20.6 87 1.5 ESE 11 13 6 7 1016.1 - 0.0
30/08:00am 21.5 24.5 21.3 99 0.1 ESE 7 13 4 7 1015.9 - 0.0
30/07:30am 20.1 22.7 20.1 100 0.0 SE 6 11 3 6 1015.5 - 0.0
30/07:00am 19.5 21.7 19.5 100 0.0 SE 7 9 4 5 1015.1 - 0.0
30/06:30am 19.6 21.8 19.6 100 0.0 SSE 7 9 4 5 1014.7 - 0.0
30/06:00am 19.8 22.1 19.8 100 0.0 SE 7 7 4 4 1014.7 1014.7 0.0
30/05:30am 19.6 21.8 19.6 100 0.0 SE 7 9 4 5 1014.5 - 0.0
30/05:00am 20.3 23.4 20.3 100 0.0 SE 4 7 2 4 1014.4 - 0.0
30/04:30am 20.5 23.2 20.2 98 0.2 SE 6 7 3 4 1014.2 - 0.0
30/04:00am 20.7 23.5 20.4 98 0.2 ESE 6 7 3 4 1014.1 - 0.0
30/03:30am 21.3 23.9 20.5 95 0.5 SE 7 7 4 4 1014.2 - 0.0
30/03:00am 21.8 24.7 20.6 93 0.8 ESE 6 7 3 4 1014.2 1014.2 0.0
30/02:30am 22.6 25.4 20.9 90 1.1 ESE 7 9 4 5 1014.3 - 0.0
30/02:00am 23.6 25.8 21.1 86 1.6 ESE 11 13 6 7 1014.5 - 0.0
30/01:30am 24.6 26.3 21.7 84 1.9 ENE 15 20 8 11 1014.6 - 0.0
30/01:00am 24.8 25.8 21.7 83 2.1 ENE 19 26 10 14 1014.8 - 0.0
30/12:30am 24.9 26.3 21.8 83 2.1 ENE 17 26 9 14 1014.9 - 0.0
30/12:00am 24.7 26.5 21.8 84 1.9 ENE 15 20 8 11 1015.0 1015.0 0.0
 
Date/Time
CST
Temp
°C
App
Temp
°C
Dew
Point
Rel
Hum
%
Delta-T
°C
Wind Press
QNH
hPa
Press
MSL
hPa
Rain
since 9 am
mm
Dir
 
Spd
km/h
Gust
km/h
Spd
kts
Gust
kts
29/11:30pm 24.9 27.1 21.8 83 2.1 NE 13 19 7 10 1015.0 - 0.0
29/11:00pm 24.8 27.2 21.5 82 2.2 NE 11 17 6 9 1015.1 - 0.0
29/10:30pm 24.9 26.9 21.6 82 2.2 NE 13 20 7 11 1015.1 - 0.0
29/10:00pm 25.0 27.6 21.9 83 2.1 NNE 11 17 6 9 1014.9 - 0.0
29/09:30pm 25.5 27.9 22.2 82 2.2 NNE 13 22 7 12 1014.8 - 0.0
29/09:00pm 25.3 28.4 22.2 83 2.1 NNE 9 15 5 8 1014.6 1014.6 0.0
29/08:30pm 23.6 26.4 18.9 75 3.0 N 2 6 1 3 1014.4 - 0.0
29/08:00pm 24.5 27.2 18.7 70 3.7 N 2 7 1 4 1013.9 - 0.0

Other Formats:

Comma delimited format used in spreadsheet applications
http://www.bom.gov.au/fwo/IDD60801/IDD60801.94127.axf

JavaScript Object Notation format (JSON) in row-major order
http://www.bom.gov.au/fwo/IDD60801/IDD60801.94127.json